sensor_id;sensor_type;location;lat;lon;timestamp;temperature;humidity
74336;DHT22;62755;-33.398;-70.572;2022-12-11T00:00:28;28.70;35.70
74336;DHT22;62755;-33.398;-70.572;2022-12-11T00:02:58;28.70;35.80
74336;DHT22;62755;-33.398;-70.572;2022-12-11T00:05:27;28.60;35.70
74336;DHT22;62755;-33.398;-70.572;2022-12-11T00:07:59;28.60;35.90
74336;DHT22;62755;-33.398;-70.572;2022-12-11T00:10:28;28.60;36.00
74336;DHT22;62755;-33.398;-70.572;2022-12-11T00:12:58;28.50;36.10
74336;DHT22;62755;-33.398;-70.572;2022-12-11T00:15:27;28.50;36.00
74336;DHT22;62755;-33.398;-70.572;2022-12-11T00:17:57;28.50;36.10
74336;DHT22;62755;-33.398;-70.572;2022-12-11T00:20:26;28.50;36.20
74336;DHT22;62755;-33.398;-70.572;2022-12-11T00:22:58;28.40;36.20
74336;DHT22;62755;-33.398;-70.572;2022-12-11T00:25:28;28.40;36.30
74336;DHT22;62755;-33.398;-70.572;2022-12-11T00:27:57;28.40;36.40
74336;DHT22;62755;-33.398;-70.572;2022-12-11T00:30:27;28.50;36.40
74336;DHT22;62755;-33.398;-70.572;2022-12-11T00:32:56;28.50;36.40
74336;DHT22;62755;-33.398;-70.572;2022-12-11T00:35:26;28.50;36.40
74336;DHT22;62755;-33.398;-70.572;2022-12-11T00:37:57;28.30;36.40
74336;DHT22;62755;-33.398;-70.572;2022-12-11T00:40:26;28.30;36.50
74336;DHT22;62755;-33.398;-70.572;2022-12-11T00:42:56;28.30;36.40
74336;DHT22;62755;-33.398;-70.572;2022-12-11T00:45:25;28.30;36.80
74336;DHT22;62755;-33.398;-70.572;2022-12-11T00:47:55;28.30;36.70
74336;DHT22;62755;-33.398;-70.572;2022-12-11T00:50:24;28.30;36.60
74336;DHT22;62755;-33.398;-70.572;2022-12-11T00:52:54;28.30;36.40
74336;DHT22;62755;-33.398;-70.572;2022-12-11T00:55:26;28.30;36.40
74336;DHT22;62755;-33.398;-70.572;2022-12-11T00:57:56;28.30;36.30
74336;DHT22;62755;-33.398;-70.572;2022-12-11T01:00:26;28.30;36.10
74336;DHT22;62755;-33.398;-70.572;2022-12-11T01:02:55;28.30;35.80
74336;DHT22;62755;-33.398;-70.572;2022-12-11T01:05:25;28.30;36.00
74336;DHT22;62755;-33.398;-70.572;2022-12-11T01:07:54;28.30;35.70
74336;DHT22;62755;-33.398;-70.572;2022-12-11T01:10:26;28.30;35.70
74336;DHT22;62755;-33.398;-70.572;2022-12-11T01:12:56;28.30;35.80
74336;DHT22;62755;-33.398;-70.572;2022-12-11T01:15:28;28.30;35.90
74336;DHT22;62755;-33.398;-70.572;2022-12-11T01:17:58;28.30;35.50
74336;DHT22;62755;-33.398;-70.572;2022-12-11T01:20:27;28.30;35.10
74336;DHT22;62755;-33.398;-70.572;2022-12-11T01:22:58;28.30;34.90
74336;DHT22;62755;-33.398;-70.572;2022-12-11T01:25:30;28.30;35.00
74336;DHT22;62755;-33.398;-70.572;2022-12-11T01:27:59;28.20;34.90
74336;DHT22;62755;-33.398;-70.572;2022-12-11T01:30:29;28.20;35.00
74336;DHT22;62755;-33.398;-70.572;2022-12-11T01:32:58;28.20;34.90
74336;DHT22;62755;-33.398;-70.572;2022-12-11T01:35:28;28.30;34.70
74336;DHT22;62755;-33.398;-70.572;2022-12-11T01:37:58;28.30;34.80
74336;DHT22;62755;-33.398;-70.572;2022-12-11T01:40:29;28.20;34.60
74336;DHT22;62755;-33.398;-70.572;2022-12-11T01:42:59;28.30;34.70
74336;DHT22;62755;-33.398;-70.572;2022-12-11T01:45:44;28.20;34.80
74336;DHT22;62755;-33.398;-70.572;2022-12-11T01:48:16;28.20;34.90
74336;DHT22;62755;-33.398;-70.572;2022-12-11T01:50:50;28.10;34.80
74336;DHT22;62755;-33.398;-70.572;2022-12-11T01:53:24;28.10;34.90
74336;DHT22;62755;-33.398;-70.572;2022-12-11T01:55:58;28.10;34.70
74336;DHT22;62755;-33.398;-70.572;2022-12-11T01:58:29;28.10;34.30
74336;DHT22;62755;-33.398;-70.572;2022-12-11T02:01:01;28.10;34.50
74336;DHT22;62755;-33.398;-70.572;2022-12-11T02:03:30;28.10;34.70
74336;DHT22;62755;-33.398;-70.572;2022-12-11T02:06:00;28.10;34.50
74336;DHT22;62755;-33.398;-70.572;2022-12-11T02:08:30;28.10;34.30
74336;DHT22;62755;-33.398;-70.572;2022-12-11T02:11:09;28.10;34.20
74336;DHT22;62755;-33.398;-70.572;2022-12-11T02:13:45;28.10;33.50
74336;DHT22;62755;-33.398;-70.572;2022-12-11T02:16:20;28.10;33.20
74336;DHT22;62755;-33.398;-70.572;2022-12-11T02:18:57;28.10;33.20
74336;DHT22;62755;-33.398;-70.572;2022-12-11T02:21:35;28.10;33.20
74336;DHT22;62755;-33.398;-70.572;2022-12-11T02:24:32;28.10;33.30
74336;DHT22;62755;-33.398;-70.572;2022-12-11T02:27:28;28.10;33.30
74336;DHT22;62755;-33.398;-70.572;2022-12-11T02:30:03;28.00;33.40
74336;DHT22;62755;-33.398;-70.572;2022-12-11T02:32:34;28.00;33.30
74336;DHT22;62755;-33.398;-70.572;2022-12-11T02:35:09;28.00;33.40
74336;DHT22;62755;-33.398;-70.572;2022-12-11T02:37:42;28.00;34.00
74336;DHT22;62755;-33.398;-70.572;2022-12-11T02:40:16;28.00;34.40
74336;DHT22;62755;-33.398;-70.572;2022-12-11T02:42:48;28.00;34.60
74336;DHT22;62755;-33.398;-70.572;2022-12-11T02:45:22;27.90;34.70
74336;DHT22;62755;-33.398;-70.572;2022-12-11T02:47:52;27.90;34.50
74336;DHT22;62755;-33.398;-70.572;2022-12-11T02:50:23;27.80;33.80
74336;DHT22;62755;-33.398;-70.572;2022-12-11T02:52:55;27.80;33.20
74336;DHT22;62755;-33.398;-70.572;2022-12-11T02:55:26;27.80;32.60
74336;DHT22;62755;-33.398;-70.572;2022-12-11T02:58:01;27.80;32.50
74336;DHT22;62755;-33.398;-70.572;2022-12-11T03:00:34;27.80;32.10
74336;DHT22;62755;-33.398;-70.572;2022-12-11T03:03:04;27.80;32.00
74336;DHT22;62755;-33.398;-70.572;2022-12-11T03:05:33;27.70;32.30
74336;DHT22;62755;-33.398;-70.572;2022-12-11T03:08:03;27.70;31.50
74336;DHT22;62755;-33.398;-70.572;2022-12-11T03:10:33;27.50;31.50
74336;DHT22;62755;-33.398;-70.572;2022-12-11T03:13:03;27.50;31.50
74336;DHT22;62755;-33.398;-70.572;2022-12-11T03:15:38;27.40;31.50
74336;DHT22;62755;-33.398;-70.572;2022-12-11T03:18:14;27.30;31.20
74336;DHT22;62755;-33.398;-70.572;2022-12-11T03:20:49;27.30;31.00
74336;DHT22;62755;-33.398;-70.572;2022-12-11T03:23:25;27.40;31.30
74336;DHT22;62755;-33.398;-70.572;2022-12-11T03:25:58;27.30;30.90
74336;DHT22;62755;-33.398;-70.572;2022-12-11T03:28:33;27.30;31.40
74336;DHT22;62755;-33.398;-70.572;2022-12-11T03:31:10;27.30;31.20
74336;DHT22;62755;-33.398;-70.572;2022-12-11T03:33:41;27.30;31.90
74336;DHT22;62755;-33.398;-70.572;2022-12-11T03:36:14;27.20;31.80
74336;DHT22;62755;-33.398;-70.572;2022-12-11T03:38:47;27.10;31.50
74336;DHT22;62755;-33.398;-70.572;2022-12-11T03:41:21;27.10;31.60
74336;DHT22;62755;-33.398;-70.572;2022-12-11T03:43:53;27.00;31.40
74336;DHT22;62755;-33.398;-70.572;2022-12-11T03:46:30;26.90;31.50
74336;DHT22;62755;-33.398;-70.572;2022-12-11T03:49:02;26.80;31.50
74336;DHT22;62755;-33.398;-70.572;2022-12-11T03:51:34;26.70;31.70
74336;DHT22;62755;-33.398;-70.572;2022-12-11T03:54:04;26.60;31.90
74336;DHT22;62755;-33.398;-70.572;2022-12-11T03:56:35;26.50;32.00
74336;DHT22;62755;-33.398;-70.572;2022-12-11T03:59:06;26.50;32.00
74336;DHT22;62755;-33.398;-70.572;2022-12-11T04:01:38;26.50;32.10
74336;DHT22;62755;-33.398;-70.572;2022-12-11T04:04:07;26.50;32.10
74336;DHT22;62755;-33.398;-70.572;2022-12-11T04:06:37;26.50;32.00
74336;DHT22;62755;-33.398;-70.572;2022-12-11T04:09:07;26.50;31.90
74336;DHT22;62755;-33.398;-70.572;2022-12-11T04:11:36;26.50;32.00
74336;DHT22;62755;-33.398;-70.572;2022-12-11T04:14:07;26.40;32.20
74336;DHT22;62755;-33.398;-70.572;2022-12-11T04:16:56;26.40;32.60
74336;DHT22;62755;-33.398;-70.572;2022-12-11T04:19:26;26.30;32.80
74336;DHT22;62755;-33.398;-70.572;2022-12-11T04:22:13;26.20;33.10
74336;DHT22;62755;-33.398;-70.572;2022-12-11T04:24:55;26.20;33.30
74336;DHT22;62755;-33.398;-70.572;2022-12-11T04:27:25;26.20;33.30
74336;DHT22;62755;-33.398;-70.572;2022-12-11T04:30:14;26.30;33.40
74336;DHT22;62755;-33.398;-70.572;2022-12-11T04:32:45;26.30;33.50
74336;DHT22;62755;-33.398;-70.572;2022-12-11T04:35:15;26.30;33.60
74336;DHT22;62755;-33.398;-70.572;2022-12-11T04:37:45;26.30;33.50
74336;DHT22;62755;-33.398;-70.572;2022-12-11T04:40:15;26.20;33.40
74336;DHT22;62755;-33.398;-70.572;2022-12-11T04:42:45;26.10;33.60
74336;DHT22;62755;-33.398;-70.572;2022-12-11T04:45:15;26.10;33.70
74336;DHT22;62755;-33.398;-70.572;2022-12-11T04:47:46;26.00;33.60
74336;DHT22;62755;-33.398;-70.572;2022-12-11T04:50:17;26.00;33.60
74336;DHT22;62755;-33.398;-70.572;2022-12-11T04:52:46;25.90;33.60
74336;DHT22;62755;-33.398;-70.572;2022-12-11T04:55:16;25.80;33.70
74336;DHT22;62755;-33.398;-70.572;2022-12-11T04:57:45;25.80;33.70
74336;DHT22;62755;-33.398;-70.572;2022-12-11T05:00:15;25.80;33.60
74336;DHT22;62755;-33.398;-70.572;2022-12-11T05:02:47;25.70;33.50
74336;DHT22;62755;-33.398;-70.572;2022-12-11T05:05:16;25.70;33.50
74336;DHT22;62755;-33.398;-70.572;2022-12-11T05:07:46;25.70;33.50
74336;DHT22;62755;-33.398;-70.572;2022-12-11T05:10:15;25.70;33.50
74336;DHT22;62755;-33.398;-70.572;2022-12-11T05:12:45;25.80;33.40
74336;DHT22;62755;-33.398;-70.572;2022-12-11T05:15:14;25.80;33.30
74336;DHT22;62755;-33.398;-70.572;2022-12-11T05:17:46;25.80;33.20
74336;DHT22;62755;-33.398;-70.572;2022-12-11T05:20:15;25.70;33.10
74336;DHT22;62755;-33.398;-70.572;2022-12-11T05:22:45;25.60;33.20
74336;DHT22;62755;-33.398;-70.572;2022-12-11T05:25:15;25.60;33.10
74336;DHT22;62755;-33.398;-70.572;2022-12-11T05:27:44;25.60;33.00
74336;DHT22;62755;-33.398;-70.572;2022-12-11T05:30:14;25.50;33.00
74336;DHT22;62755;-33.398;-70.572;2022-12-11T05:32:45;25.40;33.00
74336;DHT22;62755;-33.398;-70.572;2022-12-11T05:35:14;25.40;33.10
74336;DHT22;62755;-33.398;-70.572;2022-12-11T05:37:44;25.30;33.20
74336;DHT22;62755;-33.398;-70.572;2022-12-11T05:40:14;25.30;33.20
74336;DHT22;62755;-33.398;-70.572;2022-12-11T05:42:43;25.30;33.40
74336;DHT22;62755;-33.398;-70.572;2022-12-11T05:45:13;25.30;33.20
74336;DHT22;62755;-33.398;-70.572;2022-12-11T05:47:42;25.30;33.10
74336;DHT22;62755;-33.398;-70.572;2022-12-11T05:50:13;25.30;33.20
74336;DHT22;62755;-33.398;-70.572;2022-12-11T05:52:43;25.20;33.10
74336;DHT22;62755;-33.398;-70.572;2022-12-11T05:55:13;25.00;33.30
74336;DHT22;62755;-33.398;-70.572;2022-12-11T05:57:42;25.00;33.30
74336;DHT22;62755;-33.398;-70.572;2022-12-11T06:00:12;25.00;33.20
74336;DHT22;62755;-33.398;-70.572;2022-12-11T06:02:42;25.00;33.20
74336;DHT22;62755;-33.398;-70.572;2022-12-11T06:05:13;24.90;33.30
74336;DHT22;62755;-33.398;-70.572;2022-12-11T06:07:43;24.80;33.50
74336;DHT22;62755;-33.398;-70.572;2022-12-11T06:10:12;24.70;33.50
74336;DHT22;62755;-33.398;-70.572;2022-12-11T06:12:42;24.70;33.60
74336;DHT22;62755;-33.398;-70.572;2022-12-11T06:15:11;24.60;33.60
74336;DHT22;62755;-33.398;-70.572;2022-12-11T06:17:41;24.50;33.40
74336;DHT22;62755;-33.398;-70.572;2022-12-11T06:20:13;24.50;33.60
74336;DHT22;62755;-33.398;-70.572;2022-12-11T06:22:42;24.50;33.70
74336;DHT22;62755;-33.398;-70.572;2022-12-11T06:25:11;24.50;33.60
74336;DHT22;62755;-33.398;-70.572;2022-12-11T06:27:41;24.50;33.70
74336;DHT22;62755;-33.398;-70.572;2022-12-11T06:30:11;24.40;33.60
74336;DHT22;62755;-33.398;-70.572;2022-12-11T06:32:41;24.40;33.60
74336;DHT22;62755;-33.398;-70.572;2022-12-11T06:35:12;24.40;33.60
74336;DHT22;62755;-33.398;-70.572;2022-12-11T06:37:42;24.40;33.70
74336;DHT22;62755;-33.398;-70.572;2022-12-11T06:40:11;24.40;33.60
74336;DHT22;62755;-33.398;-70.572;2022-12-11T06:42:41;24.40;33.70
74336;DHT22;62755;-33.398;-70.572;2022-12-11T06:45:11;24.40;33.60
74336;DHT22;62755;-33.398;-70.572;2022-12-11T06:47:40;24.50;33.70
74336;DHT22;62755;-33.398;-70.572;2022-12-11T06:50:10;24.50;33.50
74336;DHT22;62755;-33.398;-70.572;2022-12-11T06:52:41;24.50;33.70
74336;DHT22;62755;-33.398;-70.572;2022-12-11T06:55:11;24.50;33.50
74336;DHT22;62755;-33.398;-70.572;2022-12-11T06:57:40;24.50;33.50
74336;DHT22;62755;-33.398;-70.572;2022-12-11T07:00:11;24.50;33.50
74336;DHT22;62755;-33.398;-70.572;2022-12-11T07:02:40;24.50;33.50
74336;DHT22;62755;-33.398;-70.572;2022-12-11T07:05:10;24.50;33.40
74336;DHT22;62755;-33.398;-70.572;2022-12-11T07:07:41;24.40;33.40
74336;DHT22;62755;-33.398;-70.572;2022-12-11T07:10:10;24.40;33.50
74336;DHT22;62755;-33.398;-70.572;2022-12-11T07:12:40;24.30;33.50
74336;DHT22;62755;-33.398;-70.572;2022-12-11T07:15:10;24.40;33.50
74336;DHT22;62755;-33.398;-70.572;2022-12-11T07:17:39;24.30;33.50
74336;DHT22;62755;-33.398;-70.572;2022-12-11T07:20:10;24.20;33.50
74336;DHT22;62755;-33.398;-70.572;2022-12-11T07:22:41;24.20;33.40
74336;DHT22;62755;-33.398;-70.572;2022-12-11T07:25:10;24.20;33.40
74336;DHT22;62755;-33.398;-70.572;2022-12-11T07:27:40;24.00;33.40
74336;DHT22;62755;-33.398;-70.572;2022-12-11T07:30:10;24.00;33.60
74336;DHT22;62755;-33.398;-70.572;2022-12-11T07:32:41;24.00;33.80
74336;DHT22;62755;-33.398;-70.572;2022-12-11T07:35:11;24.00;33.70
74336;DHT22;62755;-33.398;-70.572;2022-12-11T07:37:42;24.10;33.60
74336;DHT22;62755;-33.398;-70.572;2022-12-11T07:40:12;24.10;33.40
74336;DHT22;62755;-33.398;-70.572;2022-12-11T07:42:41;24.10;33.60
74336;DHT22;62755;-33.398;-70.572;2022-12-11T07:45:11;24.00;33.60
74336;DHT22;62755;-33.398;-70.572;2022-12-11T07:47:41;24.00;33.50
74336;DHT22;62755;-33.398;-70.572;2022-12-11T07:50:10;24.10;33.70
74336;DHT22;62755;-33.398;-70.572;2022-12-11T07:52:41;24.00;33.90
74336;DHT22;62755;-33.398;-70.572;2022-12-11T07:55:11;24.00;33.90
74336;DHT22;62755;-33.398;-70.572;2022-12-11T07:57:41;24.00;34.00
74336;DHT22;62755;-33.398;-70.572;2022-12-11T08:00:11;24.00;34.10
74336;DHT22;62755;-33.398;-70.572;2022-12-11T08:02:40;24.00;34.30
74336;DHT22;62755;-33.398;-70.572;2022-12-11T08:05:10;24.10;34.30
74336;DHT22;62755;-33.398;-70.572;2022-12-11T08:07:41;24.20;34.60
74336;DHT22;62755;-33.398;-70.572;2022-12-11T08:10:11;24.20;34.60
74336;DHT22;62755;-33.398;-70.572;2022-12-11T08:12:40;24.40;34.80
74336;DHT22;62755;-33.398;-70.572;2022-12-11T08:15:11;24.40;34.90
74336;DHT22;62755;-33.398;-70.572;2022-12-11T08:17:40;24.50;35.20
74336;DHT22;62755;-33.398;-70.572;2022-12-11T08:20:10;24.50;35.50
74336;DHT22;62755;-33.398;-70.572;2022-12-11T08:22:41;24.50;35.90
74336;DHT22;62755;-33.398;-70.572;2022-12-11T08:25:11;24.50;36.00
74336;DHT22;62755;-33.398;-70.572;2022-12-11T08:27:40;24.50;36.10
74336;DHT22;62755;-33.398;-70.572;2022-12-11T08:30:10;24.50;36.30
74336;DHT22;62755;-33.398;-70.572;2022-12-11T08:32:40;24.50;36.30
74336;DHT22;62755;-33.398;-70.572;2022-12-11T08:35:10;24.40;36.40
74336;DHT22;62755;-33.398;-70.572;2022-12-11T08:37:41;24.40;36.90
74336;DHT22;62755;-33.398;-70.572;2022-12-11T08:40:11;24.40;37.20
74336;DHT22;62755;-33.398;-70.572;2022-12-11T08:42:40;24.30;37.60
74336;DHT22;62755;-33.398;-70.572;2022-12-11T08:45:10;24.20;38.00
74336;DHT22;62755;-33.398;-70.572;2022-12-11T08:47:39;24.20;38.00
74336;DHT22;62755;-33.398;-70.572;2022-12-11T08:50:09;24.00;38.50
74336;DHT22;62755;-33.398;-70.572;2022-12-11T08:52:39;23.90;38.60
74336;DHT22;62755;-33.398;-70.572;2022-12-11T08:55:10;23.80;38.80
74336;DHT22;62755;-33.398;-70.572;2022-12-11T08:57:40;23.80;39.20
74336;DHT22;62755;-33.398;-70.572;2022-12-11T09:00:12;23.80;39.20
74336;DHT22;62755;-33.398;-70.572;2022-12-11T09:02:42;23.60;40.00
74336;DHT22;62755;-33.398;-70.572;2022-12-11T09:05:11;23.50;39.70
74336;DHT22;62755;-33.398;-70.572;2022-12-11T09:07:41;23.50;39.50
74336;DHT22;62755;-33.398;-70.572;2022-12-11T09:10:12;23.40;39.40
74336;DHT22;62755;-33.398;-70.572;2022-12-11T09:12:42;23.50;39.10
74336;DHT22;62755;-33.398;-70.572;2022-12-11T09:15:11;23.50;37.20
74336;DHT22;62755;-33.398;-70.572;2022-12-11T09:17:41;23.50;36.30
74336;DHT22;62755;-33.398;-70.572;2022-12-11T09:20:11;23.60;36.20
74336;DHT22;62755;-33.398;-70.572;2022-12-11T09:22:40;23.60;35.70
74336;DHT22;62755;-33.398;-70.572;2022-12-11T09:25:13;23.60;35.60
74336;DHT22;62755;-33.398;-70.572;2022-12-11T09:27:43;23.60;35.50
74336;DHT22;62755;-33.398;-70.572;2022-12-11T09:30:13;23.60;35.50
74336;DHT22;62755;-33.398;-70.572;2022-12-11T09:32:43;23.60;35.60
74336;DHT22;62755;-33.398;-70.572;2022-12-11T09:35:12;23.60;35.40
74336;DHT22;62755;-33.398;-70.572;2022-12-11T09:37:42;23.60;35.30
74336;DHT22;62755;-33.398;-70.572;2022-12-11T09:40:14;23.60;35.30
74336;DHT22;62755;-33.398;-70.572;2022-12-11T09:42:52;23.60;35.10
74336;DHT22;62755;-33.398;-70.572;2022-12-11T09:45:22;23.60;34.80
74336;DHT22;62755;-33.398;-70.572;2022-12-11T09:47:54;23.60;35.20
74336;DHT22;62755;-33.398;-70.572;2022-12-11T09:50:26;23.60;35.10
74336;DHT22;62755;-33.398;-70.572;2022-12-11T09:53:04;23.60;34.90
74336;DHT22;62755;-33.398;-70.572;2022-12-11T09:55:52;23.70;34.60
74336;DHT22;62755;-33.398;-70.572;2022-12-11T09:58:28;23.80;34.60
74336;DHT22;62755;-33.398;-70.572;2022-12-11T10:01:04;23.90;34.50
74336;DHT22;62755;-33.398;-70.572;2022-12-11T10:03:52;23.90;34.50
74336;DHT22;62755;-33.398;-70.572;2022-12-11T10:06:29;24.00;34.50
74336;DHT22;62755;-33.398;-70.572;2022-12-11T10:09:05;24.00;34.70
74336;DHT22;62755;-33.398;-70.572;2022-12-11T10:12:00;24.00;34.70
74336;DHT22;62755;-33.398;-70.572;2022-12-11T10:14:40;24.00;34.70
74336;DHT22;62755;-33.398;-70.572;2022-12-11T10:17:17;24.00;35.00
74336;DHT22;62755;-33.398;-70.572;2022-12-11T10:19:48;24.10;35.20
74336;DHT22;62755;-33.398;-70.572;2022-12-11T10:22:21;24.20;35.20
74336;DHT22;62755;-33.398;-70.572;2022-12-11T10:24:55;24.20;35.00
74336;DHT22;62755;-33.398;-70.572;2022-12-11T10:27:30;24.20;35.10
74336;DHT22;62755;-33.398;-70.572;2022-12-11T10:30:07;24.30;35.30
74336;DHT22;62755;-33.398;-70.572;2022-12-11T10:32:49;24.40;35.00
74336;DHT22;62755;-33.398;-70.572;2022-12-11T10:35:25;24.30;35.20
74336;DHT22;62755;-33.398;-70.572;2022-12-11T10:38:01;24.20;35.40
74336;DHT22;62755;-33.398;-70.572;2022-12-11T10:40:38;24.20;35.50
74336;DHT22;62755;-33.398;-70.572;2022-12-11T10:43:12;24.20;35.40
74336;DHT22;62755;-33.398;-70.572;2022-12-11T10:45:51;24.20;35.50
74336;DHT22;62755;-33.398;-70.572;2022-12-11T10:48:21;24.30;35.70
74336;DHT22;62755;-33.398;-70.572;2022-12-11T10:50:58;24.30;35.50
74336;DHT22;62755;-33.398;-70.572;2022-12-11T10:53:28;24.40;35.70
74336;DHT22;62755;-33.398;-70.572;2022-12-11T10:55:59;24.40;35.50
74336;DHT22;62755;-33.398;-70.572;2022-12-11T10:58:32;24.40;35.70
74336;DHT22;62755;-33.398;-70.572;2022-12-11T11:01:09;24.40;35.90
74336;DHT22;62755;-33.398;-70.572;2022-12-11T11:03:53;24.50;36.20
74336;DHT22;62755;-33.398;-70.572;2022-12-11T11:06:23;24.50;36.20
74336;DHT22;62755;-33.398;-70.572;2022-12-11T11:08:55;24.60;36.30
74336;DHT22;62755;-33.398;-70.572;2022-12-11T11:11:27;24.50;36.50
74336;DHT22;62755;-33.398;-70.572;2022-12-11T11:14:13;24.40;36.80
74336;DHT22;62755;-33.398;-70.572;2022-12-11T11:16:44;24.20;36.80
74336;DHT22;62755;-33.398;-70.572;2022-12-11T11:19:20;24.20;36.90
74336;DHT22;62755;-33.398;-70.572;2022-12-11T11:21:52;24.10;37.20
74336;DHT22;62755;-33.398;-70.572;2022-12-11T11:24:28;24.20;37.10
74336;DHT22;62755;-33.398;-70.572;2022-12-11T11:26:58;24.40;36.90
74336;DHT22;62755;-33.398;-70.572;2022-12-11T11:29:31;24.40;36.70
74336;DHT22;62755;-33.398;-70.572;2022-12-11T11:32:14;24.40;36.70
74336;DHT22;62755;-33.398;-70.572;2022-12-11T11:34:45;24.20;37.10
74336;DHT22;62755;-33.398;-70.572;2022-12-11T11:37:30;24.20;36.90
74336;DHT22;62755;-33.398;-70.572;2022-12-11T11:40:04;24.30;37.10
74336;DHT22;62755;-33.398;-70.572;2022-12-11T11:42:43;24.40;37.10
74336;DHT22;62755;-33.398;-70.572;2022-12-11T11:45:21;24.50;37.00
74336;DHT22;62755;-33.398;-70.572;2022-12-11T11:47:58;24.60;36.90
74336;DHT22;62755;-33.398;-70.572;2022-12-11T11:50:33;24.70;36.70
74336;DHT22;62755;-33.398;-70.572;2022-12-11T11:53:08;24.80;36.80
74336;DHT22;62755;-33.398;-70.572;2022-12-11T11:55:47;24.80;36.90
74336;DHT22;62755;-33.398;-70.572;2022-12-11T11:58:21;24.70;37.00
74336;DHT22;62755;-33.398;-70.572;2022-12-11T12:00:55;24.60;37.20
74336;DHT22;62755;-33.398;-70.572;2022-12-11T12:03:25;24.60;37.10
74336;DHT22;62755;-33.398;-70.572;2022-12-11T12:06:01;24.70;37.10
74336;DHT22;62755;-33.398;-70.572;2022-12-11T12:08:43;24.60;37.20
74336;DHT22;62755;-33.398;-70.572;2022-12-11T12:11:22;24.70;37.40
74336;DHT22;62755;-33.398;-70.572;2022-12-11T12:14:06;24.70;37.80
74336;DHT22;62755;-33.398;-70.572;2022-12-11T12:16:42;25.00;37.90
74336;DHT22;62755;-33.398;-70.572;2022-12-11T12:19:13;25.00;37.50
74336;DHT22;62755;-33.398;-70.572;2022-12-11T12:21:48;25.20;37.50
74336;DHT22;62755;-33.398;-70.572;2022-12-11T12:24:27;25.30;36.90
74336;DHT22;62755;-33.398;-70.572;2022-12-11T12:27:01;25.40;36.50
74336;DHT22;62755;-33.398;-70.572;2022-12-11T12:29:41;25.60;36.50
74336;DHT22;62755;-33.398;-70.572;2022-12-11T12:32:25;25.60;36.40
74336;DHT22;62755;-33.398;-70.572;2022-12-11T12:35:05;25.70;36.90
74336;DHT22;62755;-33.398;-70.572;2022-12-11T12:37:48;25.80;36.20
74336;DHT22;62755;-33.398;-70.572;2022-12-11T12:40:27;25.80;36.40
74336;DHT22;62755;-33.398;-70.572;2022-12-11T12:43:11;25.90;36.40
74336;DHT22;62755;-33.398;-70.572;2022-12-11T12:45:48;26.00;36.10
74336;DHT22;62755;-33.398;-70.572;2022-12-11T12:48:24;26.00;36.10
74336;DHT22;62755;-33.398;-70.572;2022-12-11T12:50:55;26.10;36.20
74336;DHT22;62755;-33.398;-70.572;2022-12-11T12:53:27;26.10;36.00
74336;DHT22;62755;-33.398;-70.572;2022-12-11T12:55:59;26.20;35.40
74336;DHT22;62755;-33.398;-70.572;2022-12-11T12:58:38;26.20;35.30
74336;DHT22;62755;-33.398;-70.572;2022-12-11T13:01:12;26.30;35.20
74336;DHT22;62755;-33.398;-70.572;2022-12-11T13:03:54;26.40;35.00
74336;DHT22;62755;-33.398;-70.572;2022-12-11T13:06:36;26.50;34.60
74336;DHT22;62755;-33.398;-70.572;2022-12-11T13:09:16;26.50;34.20
74336;DHT22;62755;-33.398;-70.572;2022-12-11T13:11:47;26.50;34.50
74336;DHT22;62755;-33.398;-70.572;2022-12-11T13:14:27;26.50;34.70
74336;DHT22;62755;-33.398;-70.572;2022-12-11T13:17:25;26.50;34.00
74336;DHT22;62755;-33.398;-70.572;2022-12-11T13:20:22;26.50;33.70
74336;DHT22;62755;-33.398;-70.572;2022-12-11T13:25:55;26.60;33.80
74336;DHT22;62755;-33.398;-70.572;2022-12-11T13:28:31;26.70;33.80
74336;DHT22;62755;-33.398;-70.572;2022-12-11T13:34:13;26.80;33.60
74336;DHT22;62755;-33.398;-70.572;2022-12-11T13:36:49;26.80;33.70
74336;DHT22;62755;-33.398;-70.572;2022-12-11T13:39:21;26.80;34.20
74336;DHT22;62755;-33.398;-70.572;2022-12-11T13:41:53;26.80;33.60
74336;DHT22;62755;-33.398;-70.572;2022-12-11T13:44:25;26.90;33.30
74336;DHT22;62755;-33.398;-70.572;2022-12-11T13:46:58;26.90;33.70
74336;DHT22;62755;-33.398;-70.572;2022-12-11T13:49:31;27.00;33.30
74336;DHT22;62755;-33.398;-70.572;2022-12-11T13:52:05;27.00;33.50
74336;DHT22;62755;-33.398;-70.572;2022-12-11T13:54:35;27.00;33.40
74336;DHT22;62755;-33.398;-70.572;2022-12-11T13:57:15;27.00;33.50
74336;DHT22;62755;-33.398;-70.572;2022-12-11T13:59:48;27.10;33.20
74336;DHT22;62755;-33.398;-70.572;2022-12-11T14:02:21;27.10;33.20
74336;DHT22;62755;-33.398;-70.572;2022-12-11T14:04:53;27.20;32.80
74336;DHT22;62755;-33.398;-70.572;2022-12-11T14:07:28;27.20;32.70
74336;DHT22;62755;-33.398;-70.572;2022-12-11T14:10:02;27.10;32.90
74336;DHT22;62755;-33.398;-70.572;2022-12-11T14:12:33;27.20;33.00
74336;DHT22;62755;-33.398;-70.572;2022-12-11T14:15:04;27.30;32.90
74336;DHT22;62755;-33.398;-70.572;2022-12-11T14:17:34;27.30;33.00
74336;DHT22;62755;-33.398;-70.572;2022-12-11T14:20:05;27.40;32.80
74336;DHT22;62755;-33.398;-70.572;2022-12-11T14:22:36;27.50;32.70
74336;DHT22;62755;-33.398;-70.572;2022-12-11T14:25:21;27.50;32.50
74336;DHT22;62755;-33.398;-70.572;2022-12-11T14:27:54;27.70;32.30
74336;DHT22;62755;-33.398;-70.572;2022-12-11T14:30:25;27.70;32.40
74336;DHT22;62755;-33.398;-70.572;2022-12-11T14:32:57;27.70;32.30
74336;DHT22;62755;-33.398;-70.572;2022-12-11T14:35:29;27.80;32.10
74336;DHT22;62755;-33.398;-70.572;2022-12-11T14:38:03;27.80;31.90
74336;DHT22;62755;-33.398;-70.572;2022-12-11T14:40:34;27.80;31.70
74336;DHT22;62755;-33.398;-70.572;2022-12-11T14:43:09;27.70;31.60
74336;DHT22;62755;-33.398;-70.572;2022-12-11T14:45:41;27.60;32.00
74336;DHT22;62755;-33.398;-70.572;2022-12-11T14:48:15;27.60;31.90
74336;DHT22;62755;-33.398;-70.572;2022-12-11T14:50:48;27.70;31.40
74336;DHT22;62755;-33.398;-70.572;2022-12-11T14:53:22;27.70;31.40
74336;DHT22;62755;-33.398;-70.572;2022-12-11T14:55:53;27.80;31.50
74336;DHT22;62755;-33.398;-70.572;2022-12-11T14:58:23;27.80;31.80
74336;DHT22;62755;-33.398;-70.572;2022-12-11T15:00:58;27.90;31.40
74336;DHT22;62755;-33.398;-70.572;2022-12-11T15:03:31;27.90;31.00
74336;DHT22;62755;-33.398;-70.572;2022-12-11T15:06:02;27.90;31.30
74336;DHT22;62755;-33.398;-70.572;2022-12-11T15:08:50;28.00;30.90
74336;DHT22;62755;-33.398;-70.572;2022-12-11T15:11:19;28.10;30.90
74336;DHT22;62755;-33.398;-70.572;2022-12-11T15:13:52;28.10;30.90
74336;DHT22;62755;-33.398;-70.572;2022-12-11T15:16:22;28.10;30.70
74336;DHT22;62755;-33.398;-70.572;2022-12-11T15:18:53;28.10;30.60
74336;DHT22;62755;-33.398;-70.572;2022-12-11T15:21:29;28.10;30.60
74336;DHT22;62755;-33.398;-70.572;2022-12-11T15:24:02;28.10;30.70
74336;DHT22;62755;-33.398;-70.572;2022-12-11T15:26:34;28.10;30.50